Time;durP1;ratioP1;P1;durP2;ratioP2;P2;SDS_P1;SDS_P2;PMS_P1;PMS_P2;Temp;Humidity;BMP_temperature;BMP_pressure;BME280_temperature;BME280_humidity;BME280_pressure;Samples;Min_cycle;Max_cycle;Signal;HPM_P1;HPM_P2
2023/08/11 00:01:38;;;;;;;9.40;6.28;;;;;;;17.77;89.37;101891.38;6215714;23;20004;-84
2023/08/11 00:04:03;;;;;;;10.38;6.25;;;;;;;17.72;89.31;101899.97;6217223;23;20004;-83
2023/08/11 00:06:30;;;;;;;7.85;6.57;;;;;;;17.63;89.39;101889.50;6190814;23;20434;-84
2023/08/11 00:08:55;;;;;;;8.02;6.43;;;;;;;17.67;89.99;101891.63;6217624;23;20000;-84
2023/08/11 00:11:22;;;;;;;9.52;6.28;;;;;;;17.58;90.02;101877.47;6217673;23;20028;-84
2023/08/11 00:13:48;;;;;;;8.40;6.40;;;;;;;17.61;89.75;101882.47;6217725;23;20004;-84
2023/08/11 00:16:13;;;;;;;9.35;6.10;;;;;;;17.63;89.57;101887.66;6217035;23;20066;-84
2023/08/11 00:18:40;;;;;;;7.22;6.50;;;;;;;17.53;89.41;101885.25;6217119;23;20074;-84
2023/08/11 00:21:05;;;;;;;9.23;6.53;;;;;;;17.53;89.14;101885.25;6218111;23;20291;-84
2023/08/11 00:23:30;;;;;;;7.35;6.07;;;;;;;17.46;89.81;101873.56;6217236;23;20051;-84
2023/08/11 00:25:55;;;;;;;10.20;6.45;;;;;;;17.42;90.10;101866.94;6217444;23;20008;-83
2023/08/11 00:28:21;;;;;;;10.45;6.60;;;;;;;17.37;90.39;101858.59;6217059;23;20028;-84
2023/08/11 00:30:46;;;;;;;10.43;6.30;;;;;;;17.38;90.42;101870.97;6217192;23;20016;-84
2023/08/11 00:33:11;;;;;;;9.68;6.60;;;;;;;17.45;89.96;101877.28;6190716;23;20008;-84
2023/08/11 00:35:37;;;;;;;9.00;6.03;;;;;;;17.45;90.50;101878.13;6217236;23;20425;-84
2023/08/11 00:38:03;;;;;;;8.80;6.40;;;;;;;17.38;90.51;101876.34;6216871;23;20054;-84
2023/08/11 00:40:29;;;;;;;11.05;6.47;;;;;;;17.34;90.54;101876.72;6190807;23;20034;-84
2023/08/11 00:42:54;;;;;;;8.98;6.55;;;;;;;17.36;90.73;101878.38;6216938;23;20035;-82
2023/08/11 00:45:20;;;;;;;9.23;7.00;;;;;;;17.14;90.57;101862.13;6217140;23;20429;-84
2023/08/11 00:47:45;;;;;;;10.63;6.28;;;;;;;17.31;90.58;101877.06;6217262;23;20000;-84
2023/08/11 00:50:13;;;;;;;10.20;7.20;;;;;;;17.20;90.86;101853.38;6217234;23;20080;-84
2023/08/11 00:52:39;;;;;;;9.18;6.55;;;;;;;17.13;90.86;101849.75;6190435;23;20083;-83
2023/08/11 00:55:09;;;;;;;11.80;6.40;;;;;;;17.18;91.08;101856.22;6190394;23;20091;-83
2023/08/11 00:57:36;;;;;;;8.55;6.68;;;;;;;17.07;91.67;101844.09;6216461;23;20083;-86
2023/08/11 01:00:13;;;;;;;10.65;6.90;;;;;;;17.00;91.35;101828.88;6216904;23;20446;-84
2023/08/11 01:02:43;;;;;;;8.82;6.22;;;;;;;17.02;91.84;101835.75;6216770;23;20004;-84
2023/08/11 01:05:14;;;;;;;8.77;7.07;;;;;;;17.03;91.63;101836.59;6217111;23;20000;-85
2023/08/11 01:08:03;;;;;;;12.98;7.10;;;;;;;17.18;91.38;101853.53;6216998;23;20001;-84
2023/08/11 01:10:40;;;;;;;11.52;8.13;;;;;;;17.10;91.66;101855.47;6145606;23;20083;-83
2023/08/11 01:13:18;;;;;;;10.77;7.82;;;;;;;16.96;92.06;101835.63;6216309;23;20012;-83
2023/08/11 01:16:04;;;;;;;11.52;7.55;;;;;;;17.04;91.67;101844.47;6190164;23;20016;-84
2023/08/11 01:18:30;;;;;;;10.88;8.30;;;;;;;17.03;91.57;101845.47;6205038;23;20020;-83
2023/08/11 01:21:03;;;;;;;11.25;7.93;;;;;;;16.97;91.69;101845.34;6216901;23;20425;-83
2023/08/11 01:23:29;;;;;;;12.13;8.02;;;;;;;16.94;91.66;101835.81;6190223;23;20008;-85
2023/08/11 01:25:56;;;;;;;11.45;8.82;;;;;;;16.71;91.92;101820.56;6217060;23;20015;-82
2023/08/11 01:28:21;;;;;;;9.80;8.23;;;;;;;16.88;92.07;101839.19;6189916;23;20004;-84
2023/08/11 01:30:48;;;;;;;14.40;8.50;;;;;;;16.67;92.22;101817.41;6216524;23;20079;-83
2023/08/11 01:33:14;;;;;;;11.68;8.70;;;;;;;16.75;93.05;101829.91;6216749;23;20072;-83
2023/08/11 01:35:40;;;;;;;11.48;8.68;;;;;;;16.77;92.82;101835.91;6188875;23;20017;-84
2023/08/11 01:38:08;;;;;;;12.13;8.63;;;;;;;16.69;92.76;101814.56;6189590;23;20013;-84
2023/08/11 01:40:34;;;;;;;12.52;8.73;;;;;;;16.73;93.01;101837.28;6216386;23;20005;-84
2023/08/11 01:43:02;;;;;;;13.05;8.80;;;;;;;16.69;92.61;101825.28;6215128;23;20066;-83
2023/08/11 01:45:28;;;;;;;11.32;8.90;;;;;;;16.71;92.29;101825.91;6214760;23;20011;-83
2023/08/11 01:47:54;;;;;;;13.85;9.07;;;;;;;16.80;92.80;101834.72;6186738;23;20012;-84
2023/08/11 01:50:20;;;;;;;14.38;9.82;;;;;;;16.74;92.67;101843.47;6215478;23;20072;-83
2023/08/11 01:52:47;;;;;;;12.85;8.93;;;;;;;16.80;92.39;101838.25;6214811;23;20008;-83
2023/08/11 01:55:14;;;;;;;11.98;9.05;;;;;;;16.76;93.13;101839.63;6214716;23;20005;-84
2023/08/11 01:57:40;;;;;;;12.38;8.98;;;;;;;16.60;93.11;101815.63;6215127;23;20000;-84
2023/08/11 02:00:10;;;;;;;11.77;8.85;;;;;;;16.59;93.68;101817.47;6215958;23;20012;-83
2023/08/11 02:02:37;;;;;;;12.18;9.38;;;;;;;16.66;93.65;101830.97;6191393;23;20008;-84
2023/08/11 02:05:06;;;;;;;12.23;9.38;;;;;;;16.53;93.72;101816.34;6218681;23;20333;-84
2023/08/11 02:07:31;;;;;;;12.85;9.20;;;;;;;16.51;93.22;101799.63;6218603;23;20027;-84
2023/08/11 02:09:57;;;;;;;13.88;8.98;;;;;;;16.57;93.37;101816.00;6219412;23;20422;-83
2023/08/11 02:12:22;;;;;;;13.18;9.63;;;;;;;16.49;93.18;101811.50;6217819;23;20487;-83
2023/08/11 02:14:48;;;;;;;13.68;9.95;;;;;;;16.50;93.79;101821.22;6218646;23;20422;-83
2023/08/11 02:17:13;;;;;;;12.25;9.63;;;;;;;16.51;94.28;101823.72;6219458;23;20430;-84
2023/08/11 02:19:39;;;;;;;13.48;9.93;;;;;;;16.45;94.38;101808.38;6220877;23;20017;-83
2023/08/11 02:22:04;;;;;;;14.20;10.23;;;;;;;16.42;94.72;101806.03;6240382;23;20028;-85
2023/08/11 02:24:29;;;;;;;14.90;9.85;;;;;;;16.34;94.70;101795.38;6232103;23;20452;-84
2023/08/11 02:26:55;;;;;;;13.90;9.90;;;;;;;16.34;94.11;101798.06;6231776;23;20000;-83
2023/08/11 02:29:20;;;;;;;13.77;10.20;;;;;;;16.24;94.89;101796.41;6232245;23;20008;-84
2023/08/11 02:31:47;;;;;;;15.45;10.57;;;;;;;16.38;94.99;101810.09;6231673;23;20036;-84
2023/08/11 02:34:12;;;;;;;14.13;10.35;;;;;;;16.30;95.04;101807.44;6227614;23;20005;-84
2023/08/11 02:36:38;;;;;;;15.48;10.25;;;;;;;16.34;95.75;101808.75;6217291;23;20015;-84
2023/08/11 02:39:05;;;;;;;16.38;10.32;;;;;;;16.40;95.19;101826.78;6189752;23;20058;-84
2023/08/11 02:41:31;;;;;;;13.20;10.50;;;;;;;16.27;95.50;101817.50;6216535;23;20011;-83
2023/08/11 02:43:57;;;;;;;13.73;10.73;;;;;;;16.24;95.52;101825.03;6216557;23;20013;-85
2023/08/11 02:46:23;;;;;;;15.07;10.43;;;;;;;16.10;95.08;101797.19;6216773;23;20154;-84
2023/08/11 02:48:48;;;;;;;14.02;10.60;;;;;;;16.19;95.65;101811.34;6216301;23;20001;-84
2023/08/11 02:51:13;;;;;;;13.98;10.90;;;;;;;16.10;95.56;101795.31;6215920;23;20031;-84
2023/08/11 02:53:39;;;;;;;13.52;10.50;;;;;;;16.14;95.18;101810.03;6215755;23;20015;-84
2023/08/11 02:56:07;;;;;;;15.10;10.98;;;;;;;16.21;96.73;101828.91;6188872;23;20122;-84
2023/08/11 02:58:33;;;;;;;13.40;10.60;;;;;;;16.22;95.56;101829.72;6216383;23;20008;-83
2023/08/11 03:00:59;;;;;;;17.33;11.45;;;;;;;16.14;95.72;101823.41;6216246;23;20004;-83
2023/08/11 03:03:25;;;;;;;13.27;10.95;;;;;;;16.03;95.70;101810.41;6215771;23;20460;-83
2023/08/11 03:05:50;;;;;;;15.50;10.82;;;;;;;15.91;96.74;101785.88;6216211;23;20038;-83
2023/08/11 03:08:16;;;;;;;14.00;10.77;;;;;;;16.10;95.46;101816.72;6215478;23;20433;-83
2023/08/11 03:10:41;;;;;;;16.40;10.70;;;;;;;16.06;95.95;101809.22;6215841;23;20055;-84
2023/08/11 03:13:07;;;;;;;13.65;10.73;;;;;;;15.99;96.08;101812.59;6215662;23;20011;-83
2023/08/11 03:15:33;;;;;;;14.13;10.68;;;;;;;16.03;96.76;101801.56;6188835;23;20005;-84
2023/08/11 03:17:59;;;;;;;14.73;10.82;;;;;;;15.87;96.56;101782.72;6215797;23;20328;-83
2023/08/11 03:20:24;;;;;;;14.73;10.77;;;;;;;15.91;97.14;101793.88;6215801;23;20044;-83
2023/08/11 03:22:50;;;;;;;17.77;11.43;;;;;;;15.97;97.35;101806.59;6215599;23;20011;-83
2023/08/11 03:25:15;;;;;;;16.00;11.57;;;;;;;15.85;97.69;101797.25;6215530;23;20309;-83
2023/08/11 03:27:42;;;;;;;17.23;11.35;;;;;;;15.86;97.25;101804.28;6215669;23;20090;-83
2023/08/11 03:30:10;;;;;;;16.85;11.20;;;;;;;15.86;97.64;101810.47;6215481;23;20017;-83
2023/08/11 03:32:36;;;;;;;15.15;11.57;;;;;;;15.88;97.73;101807.59;6216023;23;20012;-83
2023/08/11 03:35:01;;;;;;;14.90;11.60;;;;;;;15.78;97.31;101798.97;6215547;23;20307;-83
2023/08/11 03:37:27;;;;;;;15.23;11.63;;;;;;;15.85;98.12;101807.97;6217046;23;20009;-82
2023/08/11 03:39:52;;;;;;;14.32;11.48;;;;;;;15.84;98.12;101806.28;6217570;23;20353;-84
2023/08/11 03:42:18;;;;;;;15.63;11.65;;;;;;;15.80;97.73;101804.97;6190575;23;20009;-84
2023/08/11 03:44:43;;;;;;;17.75;11.63;;;;;;;15.79;97.42;101800.63;6217281;23;20013;-84
2023/08/11 03:47:09;;;;;;;15.35;11.23;;;;;;;15.64;97.51;101779.94;6217520;23;20361;-85
2023/08/11 03:49:34;;;;;;;16.63;11.73;;;;;;;15.68;98.63;101794.63;6217363;23;20057;-83
2023/08/11 03:52:00;;;;;;;15.93;11.70;;;;;;;15.73;98.20;101800.31;6217488;23;20057;-84
2023/08/11 03:54:25;;;;;;;16.92;11.50;;;;;;;15.67;97.86;101789.44;6217507;23;20380;-84
2023/08/11 03:56:50;;;;;;;15.27;11.52;;;;;;;15.68;98.59;101794.63;6190102;23;20014;-84
2023/08/11 03:59:16;;;;;;;16.23;12.00;;;;;;;15.59;99.04;101782.28;6190384;23;20036;-84
2023/08/11 04:01:41;;;;;;;18.83;11.68;;;;;;;15.51;99.11;101774.31;6217561;23;20005;-83
2023/08/11 04:04:06;;;;;;;16.20;11.57;;;;;;;15.56;99.47;101783.50;6190128;23;20032;-84
2023/08/11 04:06:32;;;;;;;16.92;11.88;;;;;;;15.57;99.37;101786.97;6217074;23;20001;-83
2023/08/11 04:09:02;;;;;;;16.70;12.02;;;;;;;15.55;99.20;101797.03;6217107;23;20089;-83
2023/08/11 04:11:29;;;;;;;15.73;12.10;;;;;;;15.59;99.32;101803.66;6190506;23;20008;-84
2023/08/11 04:13:55;;;;;;;16.45;11.95;;;;;;;15.55;98.87;101799.69;6190590;23;20011;-84
2023/08/11 04:16:21;;;;;;;17.45;12.38;;;;;;;15.44;99.58;101791.03;6216999;23;20075;-84
2023/08/11 04:18:46;;;;;;;16.30;12.57;;;;;;;15.50;99.61;101807.38;6190177;23;20023;-85
2023/08/11 04:21:11;;;;;;;17.02;12.70;;;;;;;15.56;100.00;101798.69;6217445;23;20426;-84
2023/08/11 04:23:37;;;;;;;15.10;12.43;;;;;;;15.46;99.98;101786.31;6190880;23;20012;-84
2023/08/11 04:26:04;;;;;;;16.35;12.73;;;;;;;15.38;99.98;101780.16;6216696;23;20008;-85
2023/08/11 04:28:29;;;;;;;16.48;12.50;;;;;;;15.37;99.76;101784.69;6216991;23;20394;-84
2023/08/11 04:30:55;;;;;;;19.13;13.10;;;;;;;15.45;99.70;101792.69;6190034;23;20011;-83
2023/08/11 04:33:21;;;;;;;17.52;13.07;;;;;;;15.42;100.00;101798.38;6217254;23;20028;-82
2023/08/11 04:35:49;;;;;;;17.23;12.95;;;;;;;15.42;100.00;101794.88;6190358;23;20027;-83
2023/08/11 04:38:15;;;;;;;18.25;12.88;;;;;;;15.40;100.00;101791.53;6216791;23;20056;-84
2023/08/11 04:40:40;;;;;;;17.45;13.13;;;;;;;15.39;100.00;101796.03;6216712;23;20005;-83
2023/08/11 04:43:06;;;;;;;17.00;13.05;;;;;;;15.35;100.00;101784.03;6216651;23;20443;-84
2023/08/11 04:45:31;;;;;;;17.45;12.90;;;;;;;15.39;100.00;101797.91;6190059;23;20418;-83
2023/08/11 04:47:56;;;;;;;17.48;13.10;;;;;;;15.41;100.00;101799.41;6216612;23;20071;-83
2023/08/11 04:50:23;;;;;;;21.60;13.05;;;;;;;15.39;100.00;101788.03;6190018;23;20008;-83
2023/08/11 04:52:48;;;;;;;17.65;13.20;;;;;;;15.32;100.00;101787.03;6190292;23;20004;-83
2023/08/11 04:55:13;;;;;;;16.73;13.00;;;;;;;15.34;100.00;101779.69;6216906;23;20008;-84
2023/08/11 04:57:39;;;;;;;17.33;12.65;;;;;;;15.33;100.00;101772.66;6216548;23;20008;-84
2023/08/11 05:00:13;;;;;;;18.75;13.43;;;;;;;15.34;100.00;101779.69;6216652;23;20088;-83
2023/08/11 05:02:41;;;;;;;18.65;12.93;;;;;;;15.36;100.00;101767.00;6192174;23;20011;-84
2023/08/11 05:05:07;;;;;;;21.58;14.00;;;;;;;15.30;100.00;101765.81;6189724;23;20013;-83
2023/08/11 05:07:33;;;;;;;19.02;13.60;;;;;;;15.35;100.00;101764.50;6216801;23;20008;-84
2023/08/11 05:09:58;;;;;;;19.33;13.35;;;;;;;15.44;100.00;101775.00;6216605;23;20011;-83
2023/08/11 05:12:24;;;;;;;19.27;13.13;;;;;;;15.37;100.00;101760.66;6216943;23;20355;-84
2023/08/11 05:14:49;;;;;;;18.33;13.40;;;;;;;15.40;100.00;101757.63;6189924;23;20425;-84
2023/08/11 05:17:14;;;;;;;18.75;12.98;;;;;;;15.39;100.00;101755.13;6216743;23;20428;-82
2023/08/11 05:19:40;;;;;;;18.63;13.23;;;;;;;15.41;100.00;101753.97;6215889;23;20161;-83
2023/08/11 05:22:05;;;;;;;18.70;13.52;;;;;;;15.50;100.00;101759.28;6216582;23;20401;-83
2023/08/11 05:24:30;;;;;;;19.67;13.25;;;;;;;15.55;100.00;101756.91;6216535;23;20001;-83
2023/08/11 05:26:57;;;;;;;19.83;12.88;;;;;;;15.57;100.00;101757.56;6216343;23;20330;-83
2023/08/11 05:29:23;;;;;;;22.23;13.93;;;;;;;15.62;100.00;101765.06;6216666;23;20008;-83
2023/08/11 05:31:48;;;;;;;21.75;13.10;;;;;;;15.71;100.00;101767.56;6189949;23;20460;-83
2023/08/11 05:34:14;;;;;;;18.67;12.85;;;;;;;15.80;100.00;101775.53;6216360;23;20009;-84
2023/08/11 05:36:39;;;;;;;20.63;12.65;;;;;;;15.70;100.00;101747.16;6216230;23;20000;-83
2023/08/11 05:39:06;;;;;;;19.83;12.90;;;;;;;15.84;100.00;101752.81;6216409;23;20366;-82
2023/08/11 05:41:32;;;;;;;17.55;11.82;;;;;;;15.89;100.00;101761.13;6216642;23;20315;-83
2023/08/11 05:43:57;;;;;;;20.08;12.95;;;;;;;16.00;100.00;101779.47;6215929;23;20012;-82
2023/08/11 05:46:23;;;;;;;19.20;12.13;;;;;;;16.05;100.00;101775.47;6216216;23;20035;-83
2023/08/11 05:48:48;;;;;;;20.58;11.93;;;;;;;16.10;100.00;101768.56;6215724;23;20031;-82
2023/08/11 05:51:15;;;;;;;18.05;11.82;;;;;;;16.14;100.00;101769.06;6216284;23;20000;-82
2023/08/11 05:53:41;;;;;;;18.33;11.90;;;;;;;16.18;100.00;101769.56;6216403;23;20011;-83
2023/08/11 05:56:06;;;;;;;18.92;11.27;;;;;;;16.13;100.00;101751.31;6216505;23;20115;-83
2023/08/11 05:58:31;;;;;;;22.05;11.95;;;;;;;16.18;100.00;101751.63;6216480;23;20029;-84
2023/08/11 06:00:57;;;;;;;19.33;11.23;;;;;;;16.35;99.75;101764.91;6216692;23;20048;-83
2023/08/11 06:03:29;;;;;;;18.55;11.07;;;;;;;16.48;98.61;101773.19;6216084;23;20382;-84
2023/08/11 06:05:57;;;;;;;;;;;;;;;16.62;98.57;101778.81;6216577;23;20024;-83
2023/08/11 06:08:23;;;;;;;15.95;10.38;;;;;;;16.52;98.40;101761.13;6215962;23;20317;-83
2023/08/11 06:10:48;;;;;;;20.27;10.40;;;;;;;16.72;97.89;101776.69;6215929;23;20071;-83
2023/08/11 06:13:13;;;;;;;15.02;9.88;;;;;;;16.73;98.05;101762.28;6215739;23;20111;-83
2023/08/11 06:15:38;;;;;;;17.27;9.73;;;;;;;16.85;97.60;101769.91;6215861;23;20425;-83
2023/08/11 06:18:04;;;;;;;16.60;10.10;;;;;;;16.88;97.86;101770.38;6215575;23;20001;-83
2023/08/11 06:20:29;;;;;;;17.88;9.77;;;;;;;16.83;97.91;101751.34;6215943;23;20004;-82
2023/08/11 06:22:55;;;;;;;13.55;9.13;;;;;;;16.94;96.57;101768.84;6215850;23;20031;-82
2023/08/11 06:25:21;;;;;;;19.15;9.48;;;;;;;17.06;96.87;101772.75;6215951;23;20035;-82
2023/08/11 06:27:46;;;;;;;14.70;9.27;;;;;;;17.04;96.83;101758.72;6215762;23;20019;-82
2023/08/11 06:30:12;;;;;;;17.67;9.40;;;;;;;17.23;96.62;101782.50;6215819;23;20453;-82
2023/08/11 06:32:37;;;;;;;15.48;8.88;;;;;;;17.28;96.54;101775.59;6215873;23;20024;-83
2023/08/11 06:35:07;;;;;;;15.45;8.60;;;;;;;17.27;96.03;101763.16;6215689;23;20000;-83
2023/08/11 06:37:32;;;;;;;17.48;8.57;;;;;;;17.40;95.45;101783.16;6215016;23;20066;-82
2023/08/11 06:40:00;;;;;;;14.27;8.32;;;;;;;17.43;94.44;101783.59;6215548;23;20004;-82
2023/08/11 06:42:26;;;;;;;14.18;8.00;;;;;;;17.44;93.62;101768.38;6188896;23;20329;-83
2023/08/11 06:44:51;;;;;;;12.73;7.53;;;;;;;17.49;92.51;101776.69;6215662;23;20127;-83
2023/08/11 06:47:17;;;;;;;12.20;7.50;;;;;;;17.56;92.94;101782.16;6215663;23;20012;-81
2023/08/11 06:49:42;;;;;;;11.48;7.22;;;;;;;17.68;92.84;101790.56;6215926;23;20008;-80
2023/08/11 06:52:07;;;;;;;12.60;7.18;;;;;;;17.63;92.99;101771.50;6215611;23;20488;-81
2023/08/11 06:54:34;;;;;;;10.57;7.07;;;;;;;17.69;93.12;101782.31;6215393;23;20015;-82
2023/08/11 06:57:01;;;;;;;14.90;7.22;;;;;;;17.85;90.39;101796.53;6215756;23;20015;-82
2023/08/11 06:59:27;;;;;;;11.73;6.93;;;;;;;17.91;90.47;101787.75;6215353;23;20008;-82
2023/08/11 07:01:52;;;;;;;16.33;6.82;;;;;;;18.03;89.14;101793.47;6215563;23;20654;-82
2023/08/11 07:04:17;;;;;;;13.95;6.63;;;;;;;18.07;89.44;101794.81;6215882;23;20095;-83
2023/08/11 07:06:43;;;;;;;10.20;6.57;;;;;;;18.02;89.75;101775.72;6215187;23;20005;-82
2023/08/11 07:09:08;;;;;;;10.68;6.32;;;;;;;18.24;88.99;101799.94;6215581;23;20005;-82
2023/08/11 07:11:34;;;;;;;10.77;6.32;;;;;;;18.33;88.52;101803.34;6215409;23;20011;-82
2023/08/11 07:13:59;;;;;;;12.07;5.70;;;;;;;18.31;88.87;101784.75;6215386;23;20004;-83
2023/08/11 07:16:24;;;;;;;12.23;5.90;;;;;;;18.41;87.20;101801.34;6215615;23;20306;-82
2023/08/11 07:18:49;;;;;;;10.75;6.15;;;;;;;18.51;86.84;101800.22;6215380;23;20413;-82
2023/08/11 07:21:17;;;;;;;8.18;5.68;;;;;;;18.48;87.49;101784.47;6215395;23;20008;-81
2023/08/11 07:23:44;;;;;;;9.23;5.90;;;;;;;18.65;86.98;101796.63;6215461;23;20008;-84
2023/08/11 07:26:09;;;;;;;11.40;6.00;;;;;;;18.72;85.41;101795.88;6215497;23;20067;-82
2023/08/11 07:28:35;;;;;;;9.70;5.90;;;;;;;18.83;85.15;101798.03;6215638;23;20008;-84
2023/08/11 07:31:00;;;;;;;9.73;5.47;;;;;;;18.94;85.19;101808.28;6215606;23;20001;-83
2023/08/11 07:33:25;;;;;;;11.13;5.85;;;;;;;18.96;84.75;101803.53;6215648;23;20035;-83
2023/08/11 07:35:51;;;;;;;9.52;5.72;;;;;;;19.04;84.30;101804.47;6188479;23;20005;-83
2023/08/11 07:38:17;;;;;;;10.48;5.63;;;;;;;19.10;84.39;101798.31;6214606;23;20012;-83
2023/08/11 07:40:43;;;;;;;9.73;5.38;;;;;;;19.26;83.34;101796.31;6215065;23;20016;-83
2023/08/11 07:43:08;;;;;;;7.35;5.30;;;;;;;19.32;83.10;101792.84;6215022;23;20015;-82
2023/08/11 07:45:33;;;;;;;8.45;5.38;;;;;;;19.46;83.56;101796.47;6215260;23;20445;-82
2023/08/11 07:47:59;;;;;;;11.98;5.75;;;;;;;19.56;82.96;101801.47;6215356;23;20032;-82
2023/08/11 07:50:24;;;;;;;9.20;5.53;;;;;;;19.67;81.26;101814.38;6215550;23;20005;-81
2023/08/11 07:52:50;;;;;;;11.93;5.35;;;;;;;19.83;81.50;101807.03;6215680;23;20003;-82
2023/08/11 07:55:15;;;;;;;9.00;5.50;;;;;;;19.94;81.07;101819.06;6188802;23;20064;-82
2023/08/11 07:57:41;;;;;;;11.43;5.13;;;;;;;20.06;81.27;101822.03;6215411;23;20019;-82
2023/08/11 08:00:13;;;;;;;12.80;5.30;;;;;;;20.10;78.90;101812.53;6215537;23;20011;-83
2023/08/11 08:02:39;;;;;;;;;;;;;;;20.19;82.40;101816.72;6189807;23;20464;-83
2023/08/11 08:05:05;;;;;;;9.45;5.20;;;;;;;20.33;79.33;101806.78;6215436;23;19927;-82
2023/08/11 08:07:30;;;;;;;9.93;5.30;;;;;;;20.43;77.69;101811.81;6215226;23;20028;-82
2023/08/11 08:09:56;;;;;;;7.75;4.93;;;;;;;20.48;77.82;101803.91;6214960;23;20009;-83
2023/08/11 08:12:21;;;;;;;8.50;4.90;;;;;;;20.59;76.42;101815.13;6215179;23;20004;-83
2023/08/11 08:14:46;;;;;;;6.00;4.78;;;;;;;20.63;76.11;101803.72;6214688;23;20060;-84
2023/08/11 08:17:12;;;;;;;8.88;4.90;;;;;;;20.71;76.21;101808.09;6214507;23;20001;-84
2023/08/11 08:19:38;;;;;;;7.88;5.00;;;;;;;20.71;75.80;101791.94;6214584;23;20013;-83
2023/08/11 08:22:04;;;;;;;8.52;4.93;;;;;;;20.91;76.86;101804.59;6214529;23;20001;-83
2023/08/11 08:24:29;;;;;;;8.07;4.95;;;;;;;20.92;74.55;101798.22;6216198;23;20001;-86
2023/08/11 08:26:55;;;;;;;9.98;4.72;;;;;;;20.93;73.77;101792.59;6216357;23;20009;-82
2023/08/11 08:29:20;;;;;;;5.45;4.35;;;;;;;21.10;72.68;101806.50;6217179;23;20008;-83
2023/08/11 08:31:45;;;;;;;7.57;4.60;;;;;;;21.20;73.25;101811.47;6217300;23;20118;-83
2023/08/11 08:34:11;;;;;;;8.20;4.85;;;;;;;21.24;73.42;101806.47;6217282;23;20001;-83
2023/08/11 08:36:36;;;;;;;7.40;4.57;;;;;;;21.42;71.99;101819.28;6217028;23;20004;-82
2023/08/11 08:39:01;;;;;;;10.88;4.57;;;;;;;21.51;73.76;101811.81;6216631;23;20721;-84
2023/08/11 08:41:29;;;;;;;6.88;4.55;;;;;;;21.55;74.65;101802.25;6217443;23;20008;-82
2023/08/11 08:43:55;;;;;;;8.15;4.43;;;;;;;21.58;74.04;101796.44;6216873;23;20009;-84
2023/08/11 08:46:21;;;;;;;9.70;4.40;;;;;;;21.69;72.52;101796.81;6217022;23;20001;-84
2023/08/11 08:48:56;;;;;;;9.18;4.55;;;;;;;21.93;72.96;101813.38;6217251;23;20020;-83
2023/08/11 08:51:22;;;;;;;7.60;4.10;;;;;;;21.95;72.54;101809.41;6215996;23;20008;-84
2023/08/11 08:53:48;;;;;;;8.43;4.47;;;;;;;22.04;71.36;101810.00;6188441;23;20005;-84
2023/08/11 08:56:14;;;;;;;8.32;4.40;;;;;;;22.10;71.85;101816.41;6214879;23;20008;-84
2023/08/11 08:58:41;;;;;;;7.43;4.30;;;;;;;22.19;70.99;101806.19;6187974;23;20001;-85
2023/08/11 09:01:09;;;;;;;8.63;4.75;;;;;;;22.33;71.80;101813.16;6188146;23;20015;-83
2023/08/11 09:03:36;;;;;;;8.27;4.28;;;;;;;22.36;69.54;101807.34;6214929;23;20013;-84
2023/08/11 09:06:03;;;;;;;9.57;4.05;;;;;;;22.49;71.34;101805.59;6188661;23;20012;-83
2023/08/11 09:08:31;;;;;;;7.30;3.95;;;;;;;22.43;70.10;101799.19;6216844;23;20005;-83
2023/08/11 09:10:56;;;;;;;6.63;3.88;;;;;;;22.55;71.36;101810.16;6216367;23;20428;-84
2023/08/11 09:13:22;;;;;;;7.07;4.03;;;;;;;22.61;70.60;101786.81;6216668;23;20008;-83
2023/08/11 09:15:47;;;;;;;9.82;4.00;;;;;;;22.79;69.32;101808.50;6216725;23;20001;-83
2023/08/11 09:18:16;;;;;;;7.07;4.05;;;;;;;22.92;70.06;101814.88;6216656;23;20008;-83
2023/08/11 09:20:45;;;;;;;5.28;3.75;;;;;;;22.95;70.40;101804.44;6217380;23;20394;-84
2023/08/11 09:23:10;;;;;;;9.57;3.80;;;;;;;23.04;67.17;101796.84;6190224;23;20083;-85
2023/08/11 09:25:36;;;;;;;5.82;3.90;;;;;;;23.14;68.20;101800.94;6216837;23;20431;-84
2023/08/11 09:28:02;;;;;;;5.05;3.60;;;;;;;23.21;68.61;101791.72;6190444;23;20004;-83
2023/08/11 09:30:31;;;;;;;6.75;3.60;;;;;;;23.24;68.78;101785.84;6190465;23;20027;-82
2023/08/11 09:33:01;;;;;;;8.25;3.60;;;;;;;23.47;67.89;101795.22;6216606;23;20008;-85
2023/08/11 09:35:27;;;;;;;8.10;3.70;;;;;;;23.44;65.76;101784.03;6189770;23;20021;-83
2023/08/11 09:37:53;;;;;;;6.22;3.50;;;;;;;23.65;67.99;101797.09;6189862;23;20353;-84
2023/08/11 09:40:19;;;;;;;7.22;3.70;;;;;;;23.57;65.97;101783.03;6216627;23;20091;-84
2023/08/11 09:42:45;;;;;;;4.97;3.30;;;;;;;23.69;69.04;101802.06;6216593;23;20075;-85
2023/08/11 09:45:10;;;;;;;8.70;3.55;;;;;;;23.57;67.46;101780.31;6216145;23;20000;-84
2023/08/11 09:47:35;;;;;;;5.95;3.60;;;;;;;23.57;66.74;101777.63;6216822;23;20074;-85
2023/08/11 09:50:01;;;;;;;8.05;3.53;;;;;;;23.58;67.65;101779.28;6217637;23;20040;-86
2023/08/11 09:52:28;;;;;;;4.93;3.60;;;;;;;23.80;67.46;101792.34;6217204;23;20088;-86
2023/08/11 09:54:56;;;;;;;5.40;3.50;;;;;;;24.01;68.93;101791.03;6217481;23;20028;-85
2023/08/11 09:57:22;;;;;;;4.53;3.30;;;;;;;24.03;68.71;101781.63;6216444;23;20032;-85
2023/08/11 09:59:49;;;;;;;6.10;3.80;;;;;;;24.17;66.58;101793.13;6216945;23;20080;-85
2023/08/11 10:02:17;;;;;;;6.78;3.50;;;;;;;24.18;63.24;101783.13;6216794;23;20009;-85
2023/08/11 10:04:48;;;;;;;3.92;3.28;;;;;;;24.18;64.46;101775.00;6217418;23;20338;-86
2023/08/11 10:07:17;;;;;;;4.10;3.40;;;;;;;24.38;64.48;101796.38;6191402;23;20008;-85
2023/08/11 10:09:45;;;;;;;4.63;3.58;;;;;;;24.48;65.32;101798.53;6218489;23;20015;-84
2023/08/11 10:12:12;;;;;;;5.65;3.10;;;;;;;24.53;64.82;101795.94;6219039;23;20009;-85
2023/08/11 10:14:39;;;;;;;5.55;3.40;;;;;;;24.60;63.45;101800.44;6219539;23;20032;-84
2023/08/11 10:17:05;;;;;;;4.72;3.25;;;;;;;24.71;63.53;101796.91;6226259;23;20056;-84
2023/08/11 10:19:31;;;;;;;4.65;3.05;;;;;;;24.74;62.59;101787.47;6237080;23;20016;-84
2023/08/11 10:21:57;;;;;;;4.53;3.08;;;;;;;24.80;61.92;101783.81;6209173;23;20035;-85
2023/08/11 10:24:23;;;;;;;4.97;3.20;;;;;;;24.87;62.06;101784.59;6210928;23;20001;-84
2023/08/11 10:26:50;;;;;;;8.07;3.20;;;;;;;25.08;61.53;101796.75;6211395;23;20025;-85
2023/08/11 10:29:17;;;;;;;5.68;3.22;;;;;;;25.03;60.27;101784.94;6236489;23;20005;-84
2023/08/11 10:32:03;;;;;;;3.42;3.13;;;;;;;25.09;61.12;101792.97;6229466;23;20004;-85
2023/08/11 10:34:28;;;;;;;4.75;3.00;;;;;;;25.09;59.14;101782.09;6216230;23;20087;-84
2023/08/11 10:36:55;;;;;;;4.40;2.80;;;;;;;25.29;58.44;101796.34;6190269;23;20001;-85
2023/08/11 10:39:21;;;;;;;5.63;3.00;;;;;;;25.23;58.00;101776.44;6190404;23;20061;-83
2023/08/11 10:41:49;;;;;;;3.58;2.97;;;;;;;25.24;58.59;101769.94;6189282;23;20091;-84
2023/08/11 10:44:18;;;;;;;4.53;3.00;;;;;;;25.34;58.07;101778.31;6189932;23;20405;-85
2023/08/11 10:46:46;;;;;;;4.22;2.80;;;;;;;25.45;56.86;101781.25;6215933;23;20058;-84
2023/08/11 10:49:14;;;;;;;4.82;2.80;;;;;;;25.67;58.14;101786.03;6189141;23;20463;-83
2023/08/11 10:51:40;;;;;;;5.05;2.80;;;;;;;25.72;57.70;101797.00;6188914;23;20005;-83
2023/08/11 10:54:06;;;;;;;4.85;2.97;;;;;;;25.73;55.51;101793.22;6215565;23;20088;-84
2023/08/11 10:56:33;;;;;;;3.65;2.97;;;;;;;25.70;56.17;101780.94;6215720;23;20000;-83
2023/08/11 10:59:11;;;;;;;3.45;2.90;;;;;;;25.86;57.88;101792.94;6215780;23;20096;-85
2023/08/11 11:01:40;;;;;;;4.53;3.00;;;;;;;25.82;58.24;101764.63;6215733;23;20005;-85
2023/08/11 11:04:08;;;;;;;6.82;3.10;;;;;;;25.88;55.56;101777.25;6216210;23;20311;-85
2023/08/11 11:06:34;;;;;;;3.20;2.90;;;;;;;25.98;57.61;101764.91;6216016;23;20330;-84
2023/08/11 11:09:00;;;;;;;5.95;2.85;;;;;;;25.98;57.96;101757.59;6189186;23;20386;-84
2023/08/11 11:11:25;;;;;;;3.90;2.88;;;;;;;26.24;56.20;101784.44;6215844;23;20015;-84
2023/08/11 11:13:51;;;;;;;4.72;3.00;;;;;;;26.17;54.37;101779.94;6215660;23;20008;-84